sensor_id;sensor_type;location;lat;lon;timestamp;P1;durP1;ratioP1;P2;durP2;ratioP2
38911;SDS011;28444;48.056;14.408;2022-11-15T00:02:38;32.22;;;16.77;;
38911;SDS011;28444;48.056;14.408;2022-11-15T00:05:25;28.10;;;15.52;;
38911;SDS011;28444;48.056;14.408;2022-11-15T00:08:12;25.48;;;15.73;;
38911;SDS011;28444;48.056;14.408;2022-11-15T00:11:00;29.27;;;17.42;;
38911;SDS011;28444;48.056;14.408;2022-11-15T00:13:49;30.42;;;17.35;;
38911;SDS011;28444;48.056;14.408;2022-11-15T00:16:36;24.30;;;15.25;;
38911;SDS011;28444;48.056;14.408;2022-11-15T00:19:23;24.95;;;16.35;;
38911;SDS011;28444;48.056;14.408;2022-11-15T00:22:10;24.67;;;14.88;;
38911;SDS011;28444;48.056;14.408;2022-11-15T00:24:57;27.13;;;14.88;;
38911;SDS011;28444;48.056;14.408;2022-11-15T00:27:44;26.90;;;15.82;;
38911;SDS011;28444;48.056;14.408;2022-11-15T00:30:31;24.40;;;14.00;;
38911;SDS011;28444;48.056;14.408;2022-11-15T00:33:19;25.60;;;15.20;;
38911;SDS011;28444;48.056;14.408;2022-11-15T00:36:07;23.67;;;15.48;;
38911;SDS011;28444;48.056;14.408;2022-11-15T00:38:58;26.23;;;15.60;;
38911;SDS011;28444;48.056;14.408;2022-11-15T00:41:45;21.70;;;15.93;;
38911;SDS011;28444;48.056;14.408;2022-11-15T00:44:32;25.00;;;16.00;;
38911;SDS011;28444;48.056;14.408;2022-11-15T00:47:19;28.33;;;15.45;;
38911;SDS011;28444;48.056;14.408;2022-11-15T00:50:06;27.75;;;13.68;;
38911;SDS011;28444;48.056;14.408;2022-11-15T00:52:59;21.40;;;12.93;;
38911;SDS011;28444;48.056;14.408;2022-11-15T00:55:46;19.83;;;12.50;;
38911;SDS011;28444;48.056;14.408;2022-11-15T00:58:33;19.35;;;12.43;;
38911;SDS011;28444;48.056;14.408;2022-11-15T01:01:20;24.88;;;13.82;;
38911;SDS011;28444;48.056;14.408;2022-11-15T01:04:07;23.17;;;11.80;;
38911;SDS011;28444;48.056;14.408;2022-11-15T01:06:55;24.85;;;12.85;;
38911;SDS011;28444;48.056;14.408;2022-11-15T01:09:42;18.80;;;11.77;;
38911;SDS011;28444;48.056;14.408;2022-11-15T01:12:29;22.58;;;12.15;;
38911;SDS011;28444;48.056;14.408;2022-11-15T01:15:16;19.13;;;12.27;;
38911;SDS011;28444;48.056;14.408;2022-11-15T01:18:03;24.60;;;12.25;;
38911;SDS011;28444;48.056;14.408;2022-11-15T01:20:50;22.58;;;13.07;;
38911;SDS011;28444;48.056;14.408;2022-11-15T01:23:37;22.90;;;11.85;;
38911;SDS011;28444;48.056;14.408;2022-11-15T01:26:24;17.60;;;10.82;;
38911;SDS011;28444;48.056;14.408;2022-11-15T01:29:12;20.83;;;10.57;;
38911;SDS011;28444;48.056;14.408;2022-11-15T01:31:59;16.50;;;10.55;;
38911;SDS011;28444;48.056;14.408;2022-11-15T01:34:46;18.10;;;10.52;;
38911;SDS011;28444;48.056;14.408;2022-11-15T01:37:33;16.45;;;11.20;;
38911;SDS011;28444;48.056;14.408;2022-11-15T01:40:20;22.30;;;12.38;;
38911;SDS011;28444;48.056;14.408;2022-11-15T01:43:23;20.40;;;12.07;;
38911;SDS011;28444;48.056;14.408;2022-11-15T01:46:23;22.50;;;13.23;;
38911;SDS011;28444;48.056;14.408;2022-11-15T01:49:18;21.90;;;13.55;;
38911;SDS011;28444;48.056;14.408;2022-11-15T01:52:09;22.75;;;14.50;;
38911;SDS011;28444;48.056;14.408;2022-11-15T01:58:07;25.70;;;13.57;;
38911;SDS011;28444;48.056;14.408;2022-11-15T02:00:54;24.02;;;13.95;;
38911;SDS011;28444;48.056;14.408;2022-11-15T02:03:44;24.10;;;14.50;;
38911;SDS011;28444;48.056;14.408;2022-11-15T02:06:42;20.38;;;12.43;;
38911;SDS011;28444;48.056;14.408;2022-11-15T02:09:30;24.52;;;14.35;;
38911;SDS011;28444;48.056;14.408;2022-11-15T02:12:18;19.15;;;11.75;;
38911;SDS011;28444;48.056;14.408;2022-11-15T02:15:08;20.75;;;13.13;;
38911;SDS011;28444;48.056;14.408;2022-11-15T02:18:00;21.73;;;13.70;;
38911;SDS011;28444;48.056;14.408;2022-11-15T02:24:58;24.02;;;12.60;;
38911;SDS011;28444;48.056;14.408;2022-11-15T02:28:48;20.38;;;11.52;;
38911;SDS011;28444;48.056;14.408;2022-11-15T02:31:28;21.58;;;12.45;;
38911;SDS011;28444;48.056;14.408;2022-11-15T02:34:28;15.23;;;10.63;;
38911;SDS011;28444;48.056;14.408;2022-11-15T02:38:09;21.42;;;12.80;;
38911;SDS011;28444;48.056;14.408;2022-11-15T02:40:59;26.05;;;11.98;;
38911;SDS011;28444;48.056;14.408;2022-11-15T02:44:33;21.23;;;11.35;;
38911;SDS011;28444;48.056;14.408;2022-11-15T02:47:37;21.45;;;11.00;;
38911;SDS011;28444;48.056;14.408;2022-11-15T02:50:30;22.42;;;10.85;;
38911;SDS011;28444;48.056;14.408;2022-11-15T02:53:23;17.98;;;11.57;;
38911;SDS011;28444;48.056;14.408;2022-11-15T02:56:11;18.13;;;10.82;;
38911;SDS011;28444;48.056;14.408;2022-11-15T02:59:02;18.13;;;12.27;;
38911;SDS011;28444;48.056;14.408;2022-11-15T03:02:37;18.70;;;12.50;;
38911;SDS011;28444;48.056;14.408;2022-11-15T03:06:28;17.83;;;11.82;;
38911;SDS011;28444;48.056;14.408;2022-11-15T03:09:16;19.77;;;12.00;;
38911;SDS011;28444;48.056;14.408;2022-11-15T03:12:57;18.17;;;11.90;;
38911;SDS011;28444;48.056;14.408;2022-11-15T03:15:36;22.20;;;11.93;;
38911;SDS011;28444;48.056;14.408;2022-11-15T03:18:30;15.85;;;11.13;;
38911;SDS011;28444;48.056;14.408;2022-11-15T03:21:20;30.88;;;11.75;;
38911;SDS011;28444;48.056;14.408;2022-11-15T03:24:08;21.60;;;11.13;;
38911;SDS011;28444;48.056;14.408;2022-11-15T03:26:57;20.80;;;11.10;;
38911;SDS011;28444;48.056;14.408;2022-11-15T03:29:49;17.27;;;11.00;;
38911;SDS011;28444;48.056;14.408;2022-11-15T03:35:32;19.85;;;10.13;;
38911;SDS011;28444;48.056;14.408;2022-11-15T03:38:26;17.45;;;10.88;;
38911;SDS011;28444;48.056;14.408;2022-11-15T03:41:24;16.77;;;11.35;;
38911;SDS011;28444;48.056;14.408;2022-11-15T03:44:35;17.73;;;10.95;;
38911;SDS011;28444;48.056;14.408;2022-11-15T03:51:19;13.57;;;9.52;;
38911;SDS011;28444;48.056;14.408;2022-11-15T03:54:07;22.48;;;10.63;;
38911;SDS011;28444;48.056;14.408;2022-11-15T03:56:54;17.27;;;9.98;;
38911;SDS011;28444;48.056;14.408;2022-11-15T03:59:41;18.05;;;10.07;;
38911;SDS011;28444;48.056;14.408;2022-11-15T04:02:28;16.13;;;11.13;;
38911;SDS011;28444;48.056;14.408;2022-11-15T04:05:15;17.20;;;11.25;;
38911;SDS011;28444;48.056;14.408;2022-11-15T04:08:02;16.55;;;11.27;;
38911;SDS011;28444;48.056;14.408;2022-11-15T04:10:49;18.17;;;10.27;;
38911;SDS011;28444;48.056;14.408;2022-11-15T04:13:37;20.63;;;11.65;;
38911;SDS011;28444;48.056;14.408;2022-11-15T04:16:24;18.13;;;11.15;;
38911;SDS011;28444;48.056;14.408;2022-11-15T04:19:11;18.15;;;11.20;;
38911;SDS011;28444;48.056;14.408;2022-11-15T04:22:16;16.20;;;11.20;;
38911;SDS011;28444;48.056;14.408;2022-11-15T04:25:26;21.77;;;12.23;;
38911;SDS011;28444;48.056;14.408;2022-11-15T04:28:18;17.70;;;11.02;;
38911;SDS011;28444;48.056;14.408;2022-11-15T04:31:05;13.88;;;10.65;;
38911;SDS011;28444;48.056;14.408;2022-11-15T04:33:52;21.00;;;12.52;;
38911;SDS011;28444;48.056;14.408;2022-11-15T04:36:39;24.02;;;13.15;;
38911;SDS011;28444;48.056;14.408;2022-11-15T04:39:45;49.88;;;16.90;;
38911;SDS011;28444;48.056;14.408;2022-11-15T04:42:32;35.65;;;15.45;;
38911;SDS011;28444;48.056;14.408;2022-11-15T04:45:19;44.25;;;18.77;;
38911;SDS011;28444;48.056;14.408;2022-11-15T04:48:06;37.35;;;17.73;;
38911;SDS011;28444;48.056;14.408;2022-11-15T04:50:53;60.67;;;22.30;;
38911;SDS011;28444;48.056;14.408;2022-11-15T04:53:40;57.50;;;24.58;;
38911;SDS011;28444;48.056;14.408;2022-11-15T04:56:27;177.80;;;28.77;;
38911;SDS011;28444;48.056;14.408;2022-11-15T04:59:15;76.57;;;24.95;;
38911;SDS011;28444;48.056;14.408;2022-11-15T05:02:02;59.08;;;24.25;;
38911;SDS011;28444;48.056;14.408;2022-11-15T05:04:48;51.95;;;23.38;;
38911;SDS011;28444;48.056;14.408;2022-11-15T05:07:35;58.95;;;26.00;;
38911;SDS011;28444;48.056;14.408;2022-11-15T05:10:23;64.07;;;27.17;;
38911;SDS011;28444;48.056;14.408;2022-11-15T05:13:10;60.47;;;27.05;;
38911;SDS011;28444;48.056;14.408;2022-11-15T05:15:57;123.10;;;26.83;;
38911;SDS011;28444;48.056;14.408;2022-11-15T05:18:44;153.20;;;27.20;;
38911;SDS011;28444;48.056;14.408;2022-11-15T05:21:31;66.60;;;24.70;;
38911;SDS011;28444;48.056;14.408;2022-11-15T05:24:18;69.43;;;27.35;;
38911;SDS011;28444;48.056;14.408;2022-11-15T05:27:05;73.97;;;25.52;;
38911;SDS011;28444;48.056;14.408;2022-11-15T05:29:52;65.90;;;27.10;;
38911;SDS011;28444;48.056;14.408;2022-11-15T05:32:40;58.95;;;26.25;;
38911;SDS011;28444;48.056;14.408;2022-11-15T05:35:30;89.60;;;27.60;;
38911;SDS011;28444;48.056;14.408;2022-11-15T05:38:20;77.57;;;26.50;;
38911;SDS011;28444;48.056;14.408;2022-11-15T05:41:08;54.88;;;24.45;;
38911;SDS011;28444;48.056;14.408;2022-11-15T05:43:55;54.90;;;28.05;;
38911;SDS011;28444;48.056;14.408;2022-11-15T05:46:43;57.80;;;33.08;;
38911;SDS011;28444;48.056;14.408;2022-11-15T05:49:32;71.05;;;26.58;;
38911;SDS011;28444;48.056;14.408;2022-11-15T05:52:24;64.35;;;27.35;;
38911;SDS011;28444;48.056;14.408;2022-11-15T05:58:02;287.42;;;35.63;;
38911;SDS011;28444;48.056;14.408;2022-11-15T06:00:49;280.98;;;32.72;;
38911;SDS011;28444;48.056;14.408;2022-11-15T06:03:37;87.00;;;24.48;;
38911;SDS011;28444;48.056;14.408;2022-11-15T06:06:24;46.45;;;24.83;;
38911;SDS011;28444;48.056;14.408;2022-11-15T06:09:14;125.68;;;25.30;;
38911;SDS011;28444;48.056;14.408;2022-11-15T06:12:01;324.05;;;34.53;;
38911;SDS011;28444;48.056;14.408;2022-11-15T06:14:48;82.38;;;23.02;;
38911;SDS011;28444;48.056;14.408;2022-11-15T06:17:35;68.80;;;24.08;;
38911;SDS011;28444;48.056;14.408;2022-11-15T06:20:22;83.55;;;26.52;;
38911;SDS011;28444;48.056;14.408;2022-11-15T06:23:10;204.63;;;33.58;;
38911;SDS011;28444;48.056;14.408;2022-11-15T06:26:00;383.17;;;37.88;;
38911;SDS011;28444;48.056;14.408;2022-11-15T06:28:48;87.43;;;25.98;;
38911;SDS011;28444;48.056;14.408;2022-11-15T06:31:35;60.40;;;26.20;;
38911;SDS011;28444;48.056;14.408;2022-11-15T06:34:22;53.83;;;25.30;;
38911;SDS011;28444;48.056;14.408;2022-11-15T06:37:09;60.25;;;29.77;;
38911;SDS011;28444;48.056;14.408;2022-11-15T06:39:56;45.38;;;24.92;;
38911;SDS011;28444;48.056;14.408;2022-11-15T06:42:43;79.88;;;27.70;;
38911;SDS011;28444;48.056;14.408;2022-11-15T06:45:30;44.95;;;22.48;;
38911;SDS011;28444;48.056;14.408;2022-11-15T06:48:18;48.70;;;21.98;;
38911;SDS011;28444;48.056;14.408;2022-11-15T06:51:05;71.20;;;22.48;;
38911;SDS011;28444;48.056;14.408;2022-11-15T06:53:52;41.47;;;21.65;;
38911;SDS011;28444;48.056;14.408;2022-11-15T06:56:39;39.10;;;20.08;;
38911;SDS011;28444;48.056;14.408;2022-11-15T06:59:26;42.90;;;21.67;;
38911;SDS011;28444;48.056;14.408;2022-11-15T07:02:13;34.38;;;21.08;;
38911;SDS011;28444;48.056;14.408;2022-11-15T07:05:00;39.67;;;21.45;;
38911;SDS011;28444;48.056;14.408;2022-11-15T07:07:53;43.92;;;22.50;;
38911;SDS011;28444;48.056;14.408;2022-11-15T07:10:41;42.53;;;21.45;;
38911;SDS011;28444;48.056;14.408;2022-11-15T07:13:29;33.78;;;21.42;;
38911;SDS011;28444;48.056;14.408;2022-11-15T07:16:20;43.17;;;23.05;;
38911;SDS011;28444;48.056;14.408;2022-11-15T07:19:08;36.90;;;23.55;;
38911;SDS011;28444;48.056;14.408;2022-11-15T07:21:55;36.38;;;22.25;;
38911;SDS011;28444;48.056;14.408;2022-11-15T07:24:42;38.40;;;21.73;;
38911;SDS011;28444;48.056;14.408;2022-11-15T07:27:29;37.92;;;21.98;;
38911;SDS011;28444;48.056;14.408;2022-11-15T07:30:17;34.47;;;21.35;;
38911;SDS011;28444;48.056;14.408;2022-11-15T07:33:04;41.15;;;21.08;;
38911;SDS011;28444;48.056;14.408;2022-11-15T07:35:51;33.00;;;21.00;;
38911;SDS011;28444;48.056;14.408;2022-11-15T07:38:38;35.33;;;20.50;;
38911;SDS011;28444;48.056;14.408;2022-11-15T07:41:28;34.85;;;21.33;;
38911;SDS011;28444;48.056;14.408;2022-11-15T07:44:16;42.15;;;22.60;;
38911;SDS011;28444;48.056;14.408;2022-11-15T07:47:03;48.95;;;22.05;;
38911;SDS011;28444;48.056;14.408;2022-11-15T07:49:50;38.92;;;22.38;;
38911;SDS011;28444;48.056;14.408;2022-11-15T07:52:37;43.67;;;24.60;;
38911;SDS011;28444;48.056;14.408;2022-11-15T07:55:24;39.95;;;22.05;;
38911;SDS011;28444;48.056;14.408;2022-11-15T07:58:12;48.03;;;24.85;;
38911;SDS011;28444;48.056;14.408;2022-11-15T08:01:06;46.47;;;24.13;;
38911;SDS011;28444;48.056;14.408;2022-11-15T08:03:55;41.58;;;22.10;;
38911;SDS011;28444;48.056;14.408;2022-11-15T08:06:42;38.85;;;22.10;;
38911;SDS011;28444;48.056;14.408;2022-11-15T08:09:29;47.67;;;23.90;;
38911;SDS011;28444;48.056;14.408;2022-11-15T08:12:16;41.35;;;23.08;;
38911;SDS011;28444;48.056;14.408;2022-11-15T08:15:03;44.65;;;24.15;;
38911;SDS011;28444;48.056;14.408;2022-11-15T08:17:58;37.38;;;22.15;;
38911;SDS011;28444;48.056;14.408;2022-11-15T08:20:47;46.17;;;24.42;;
38911;SDS011;28444;48.056;14.408;2022-11-15T08:23:34;50.40;;;24.27;;
38911;SDS011;28444;48.056;14.408;2022-11-15T08:26:21;45.05;;;21.30;;
38911;SDS011;28444;48.056;14.408;2022-11-15T08:29:08;40.65;;;23.20;;
38911;SDS011;28444;48.056;14.408;2022-11-15T08:31:55;39.03;;;20.95;;
38911;SDS011;28444;48.056;14.408;2022-11-15T08:34:42;50.58;;;21.40;;
38911;SDS011;28444;48.056;14.408;2022-11-15T08:37:29;41.78;;;23.40;;
38911;SDS011;28444;48.056;14.408;2022-11-15T08:40:16;42.58;;;22.83;;
38911;SDS011;28444;48.056;14.408;2022-11-15T08:43:05;57.50;;;24.02;;
38911;SDS011;28444;48.056;14.408;2022-11-15T08:45:55;44.95;;;24.10;;
38911;SDS011;28444;48.056;14.408;2022-11-15T08:48:42;43.35;;;24.45;;
38911;SDS011;28444;48.056;14.408;2022-11-15T08:51:29;44.53;;;23.88;;
38911;SDS011;28444;48.056;14.408;2022-11-15T08:54:16;45.45;;;24.90;;
38911;SDS011;28444;48.056;14.408;2022-11-15T08:57:03;37.53;;;21.60;;
38911;SDS011;28444;48.056;14.408;2022-11-15T08:59:50;37.10;;;22.08;;
38911;SDS011;28444;48.056;14.408;2022-11-15T09:02:38;41.67;;;21.42;;
38911;SDS011;28444;48.056;14.408;2022-11-15T09:05:28;36.42;;;20.88;;
38911;SDS011;28444;48.056;14.408;2022-11-15T09:08:15;37.40;;;20.27;;
38911;SDS011;28444;48.056;14.408;2022-11-15T09:11:22;38.13;;;19.55;;
38911;SDS011;28444;48.056;14.408;2022-11-15T09:14:12;47.08;;;22.83;;
38911;SDS011;28444;48.056;14.408;2022-11-15T09:17:00;35.60;;;20.20;;
38911;SDS011;28444;48.056;14.408;2022-11-15T09:19:47;42.80;;;20.20;;
38911;SDS011;28444;48.056;14.408;2022-11-15T09:22:34;37.67;;;20.30;;
38911;SDS011;28444;48.056;14.408;2022-11-15T09:25:22;43.17;;;21.23;;
38911;SDS011;28444;48.056;14.408;2022-11-15T09:28:10;34.47;;;19.10;;
38911;SDS011;28444;48.056;14.408;2022-11-15T09:30:57;35.80;;;19.85;;
38911;SDS011;28444;48.056;14.408;2022-11-15T09:33:45;39.78;;;21.45;;
38911;SDS011;28444;48.056;14.408;2022-11-15T09:36:32;45.30;;;21.98;;
38911;SDS011;28444;48.056;14.408;2022-11-15T09:39:20;43.53;;;23.63;;
38911;SDS011;28444;48.056;14.408;2022-11-15T09:45:57;40.10;;;20.17;;
38911;SDS011;28444;48.056;14.408;2022-11-15T09:49:02;39.58;;;20.80;;
38911;SDS011;28444;48.056;14.408;2022-11-15T09:51:52;37.88;;;19.48;;
38911;SDS011;28444;48.056;14.408;2022-11-15T09:54:41;38.92;;;21.23;;
38911;SDS011;28444;48.056;14.408;2022-11-15T09:57:44;35.53;;;19.52;;
38911;SDS011;28444;48.056;14.408;2022-11-15T10:01:04;37.53;;;20.40;;
38911;SDS011;28444;48.056;14.408;2022-11-15T10:03:58;34.88;;;18.10;;
38911;SDS011;28444;48.056;14.408;2022-11-15T10:06:57;35.42;;;19.15;;
38911;SDS011;28444;48.056;14.408;2022-11-15T10:10:13;38.70;;;18.85;;
38911;SDS011;28444;48.056;14.408;2022-11-15T10:13:23;39.78;;;19.35;;
38911;SDS011;28444;48.056;14.408;2022-11-15T10:23:20;38.63;;;19.45;;
38911;SDS011;28444;48.056;14.408;2022-11-15T10:26:11;35.03;;;18.65;;
38911;SDS011;28444;48.056;14.408;2022-11-15T10:29:02;34.35;;;18.88;;
38911;SDS011;28444;48.056;14.408;2022-11-15T10:31:50;34.97;;;17.65;;
38911;SDS011;28444;48.056;14.408;2022-11-15T10:34:37;35.63;;;17.42;;
38911;SDS011;28444;48.056;14.408;2022-11-15T10:37:28;39.47;;;17.98;;
38911;SDS011;28444;48.056;14.408;2022-11-15T10:40:20;33.13;;;18.10;;
38911;SDS011;28444;48.056;14.408;2022-11-15T10:46:20;30.05;;;16.70;;
38911;SDS011;28444;48.056;14.408;2022-11-15T10:49:29;32.20;;;17.83;;
38911;SDS011;28444;48.056;14.408;2022-11-15T10:52:18;29.13;;;18.13;;
38911;SDS011;28444;48.056;14.408;2022-11-15T10:58:42;31.48;;;18.00;;
38911;SDS011;28444;48.056;14.408;2022-11-15T11:01:45;38.30;;;17.50;;
38911;SDS011;28444;48.056;14.408;2022-11-15T11:04:49;31.40;;;18.00;;
38911;SDS011;28444;48.056;14.408;2022-11-15T11:10:24;34.08;;;16.80;;
38911;SDS011;28444;48.056;14.408;2022-11-15T11:13:33;30.25;;;17.40;;
38911;SDS011;28444;48.056;14.408;2022-11-15T11:16:44;40.60;;;19.17;;
38911;SDS011;28444;48.056;14.408;2022-11-15T11:19:49;31.48;;;16.98;;
38911;SDS011;28444;48.056;14.408;2022-11-15T11:33:07;30.90;;;17.42;;
38911;SDS011;28444;48.056;14.408;2022-11-15T11:36:26;35.28;;;17.42;;
38911;SDS011;28444;48.056;14.408;2022-11-15T11:39:25;31.42;;;16.27;;
38911;SDS011;28444;48.056;14.408;2022-11-15T11:46:42;30.42;;;17.42;;
38911;SDS011;28444;48.056;14.408;2022-11-15T11:50:14;30.98;;;16.05;;
38911;SDS011;28444;48.056;14.408;2022-11-15T11:53:12;35.88;;;18.15;;
38911;SDS011;28444;48.056;14.408;2022-11-15T11:56:15;31.80;;;17.00;;
38911;SDS011;28444;48.056;14.408;2022-11-15T11:59:45;34.83;;;18.50;;
38911;SDS011;28444;48.056;14.408;2022-11-15T12:03:09;30.90;;;17.08;;
38911;SDS011;28444;48.056;14.408;2022-11-15T12:09:26;33.67;;;17.17;;
38911;SDS011;28444;48.056;14.408;2022-11-15T12:15:59;35.03;;;18.10;;
38911;SDS011;28444;48.056;14.408;2022-11-15T12:19:08;34.63;;;18.50;;
38911;SDS011;28444;48.056;14.408;2022-11-15T12:22:06;34.75;;;18.75;;
38911;SDS011;28444;48.056;14.408;2022-11-15T12:25:02;35.35;;;17.90;;
38911;SDS011;28444;48.056;14.408;2022-11-15T12:28:11;39.03;;;17.23;;
38911;SDS011;28444;48.056;14.408;2022-11-15T12:31:38;33.03;;;16.67;;
38911;SDS011;28444;48.056;14.408;2022-11-15T12:34:29;30.88;;;15.25;;
38911;SDS011;28444;48.056;14.408;2022-11-15T12:37:41;35.72;;;18.73;;
38911;SDS011;28444;48.056;14.408;2022-11-15T12:40:35;33.35;;;16.60;;
38911;SDS011;28444;48.056;14.408;2022-11-15T12:43:43;33.40;;;17.20;;
38911;SDS011;28444;48.056;14.408;2022-11-15T12:50:12;40.05;;;19.42;;
38911;SDS011;28444;48.056;14.408;2022-11-15T12:53:42;36.53;;;18.88;;
38911;SDS011;28444;48.056;14.408;2022-11-15T12:56:18;36.38;;;17.80;;
38911;SDS011;28444;48.056;14.408;2022-11-15T12:59:07;36.08;;;17.55;;
38911;SDS011;28444;48.056;14.408;2022-11-15T13:01:57;30.83;;;16.75;;
38911;SDS011;28444;48.056;14.408;2022-11-15T13:04:46;30.70;;;16.70;;
38911;SDS011;28444;48.056;14.408;2022-11-15T13:10:47;33.83;;;16.85;;
38911;SDS011;28444;48.056;14.408;2022-11-15T13:13:43;39.78;;;18.50;;
38911;SDS011;28444;48.056;14.408;2022-11-15T13:16:32;39.88;;;18.48;;
38911;SDS011;28444;48.056;14.408;2022-11-15T13:19:19;38.67;;;18.25;;
38911;SDS011;28444;48.056;14.408;2022-11-15T13:22:09;33.92;;;18.15;;
38911;SDS011;28444;48.056;14.408;2022-11-15T13:28:44;30.58;;;17.42;;
38911;SDS011;28444;48.056;14.408;2022-11-15T13:31:40;32.53;;;16.90;;
38911;SDS011;28444;48.056;14.408;2022-11-15T13:34:30;32.90;;;16.00;;
38911;SDS011;28444;48.056;14.408;2022-11-15T13:37:39;27.08;;;16.00;;
38911;SDS011;28444;48.056;14.408;2022-11-15T13:40:28;29.02;;;14.82;;
38911;SDS011;28444;48.056;14.408;2022-11-15T13:46:29;26.77;;;15.05;;
38911;SDS011;28444;48.056;14.408;2022-11-15T13:49:20;32.03;;;16.05;;
38911;SDS011;28444;48.056;14.408;2022-11-15T13:52:16;31.40;;;17.10;;
38911;SDS011;28444;48.056;14.408;2022-11-15T13:55:04;31.10;;;16.20;;
38911;SDS011;28444;48.056;14.408;2022-11-15T13:58:06;34.55;;;17.65;;
38911;SDS011;28444;48.056;14.408;2022-11-15T14:01:02;31.58;;;16.00;;
38911;SDS011;28444;48.056;14.408;2022-11-15T14:03:58;32.47;;;16.30;;
38911;SDS011;28444;48.056;14.408;2022-11-15T14:06:48;33.97;;;17.73;;
38911;SDS011;28444;48.056;14.408;2022-11-15T14:09:40;33.45;;;18.23;;
38911;SDS011;28444;48.056;14.408;2022-11-15T14:12:31;33.72;;;18.90;;
38911;SDS011;28444;48.056;14.408;2022-11-15T14:15:25;30.38;;;16.95;;
38911;SDS011;28444;48.056;14.408;2022-11-15T14:25:18;41.00;;;18.48;;
38911;SDS011;28444;48.056;14.408;2022-11-15T14:31:21;36.95;;;18.13;;
38911;SDS011;28444;48.056;14.408;2022-11-15T14:34:08;35.67;;;17.88;;
38911;SDS011;28444;48.056;14.408;2022-11-15T14:36:55;29.02;;;16.85;;
38911;SDS011;28444;48.056;14.408;2022-11-15T14:39:42;30.55;;;16.83;;
38911;SDS011;28444;48.056;14.408;2022-11-15T14:42:29;34.65;;;17.80;;
38911;SDS011;28444;48.056;14.408;2022-11-15T14:45:18;35.20;;;18.77;;
38911;SDS011;28444;48.056;14.408;2022-11-15T14:48:07;33.75;;;17.05;;
38911;SDS011;28444;48.056;14.408;2022-11-15T14:50:54;30.63;;;16.83;;
38911;SDS011;28444;48.056;14.408;2022-11-15T14:53:41;33.28;;;16.75;;
38911;SDS011;28444;48.056;14.408;2022-11-15T14:56:28;34.15;;;18.83;;
38911;SDS011;28444;48.056;14.408;2022-11-15T14:59:15;30.08;;;16.30;;
38911;SDS011;28444;48.056;14.408;2022-11-15T15:02:04;33.00;;;16.75;;
38911;SDS011;28444;48.056;14.408;2022-11-15T15:05:08;31.42;;;16.75;;
38911;SDS011;28444;48.056;14.408;2022-11-15T15:08:04;34.28;;;17.23;;
38911;SDS011;28444;48.056;14.408;2022-11-15T15:10:52;35.92;;;18.27;;
38911;SDS011;28444;48.056;14.408;2022-11-15T15:13:39;35.40;;;18.30;;
38911;SDS011;28444;48.056;14.408;2022-11-15T15:16:26;30.98;;;17.67;;
38911;SDS011;28444;48.056;14.408;2022-11-15T15:19:13;34.80;;;16.55;;
38911;SDS011;28444;48.056;14.408;2022-11-15T15:22:00;34.85;;;17.45;;
38911;SDS011;28444;48.056;14.408;2022-11-15T15:24:47;32.15;;;17.27;;
38911;SDS011;28444;48.056;14.408;2022-11-15T15:27:34;36.28;;;18.52;;
38911;SDS011;28444;48.056;14.408;2022-11-15T15:30:22;33.15;;;17.98;;
38911;SDS011;28444;48.056;14.408;2022-11-15T15:33:09;30.77;;;17.55;;
38911;SDS011;28444;48.056;14.408;2022-11-15T15:35:57;36.28;;;18.55;;
38911;SDS011;28444;48.056;14.408;2022-11-15T15:38:44;35.78;;;17.30;;
38911;SDS011;28444;48.056;14.408;2022-11-15T15:41:33;34.58;;;17.33;;
38911;SDS011;28444;48.056;14.408;2022-11-15T15:44:20;32.42;;;18.63;;
38911;SDS011;28444;48.056;14.408;2022-11-15T15:47:11;35.83;;;19.70;;
38911;SDS011;28444;48.056;14.408;2022-11-15T15:50:00;33.25;;;19.10;;
38911;SDS011;28444;48.056;14.408;2022-11-15T15:52:47;35.60;;;17.42;;
38911;SDS011;28444;48.056;14.408;2022-11-15T15:55:36;35.10;;;17.55;;
38911;SDS011;28444;48.056;14.408;2022-11-15T15:58:23;32.67;;;17.60;;
38911;SDS011;28444;48.056;14.408;2022-11-15T16:01:10;39.08;;;17.83;;
38911;SDS011;28444;48.056;14.408;2022-11-15T16:03:57;33.15;;;16.92;;
38911;SDS011;28444;48.056;14.408;2022-11-15T16:06:44;31.90;;;17.10;;
38911;SDS011;28444;48.056;14.408;2022-11-15T16:09:32;36.90;;;18.05;;
38911;SDS011;28444;48.056;14.408;2022-11-15T16:12:38;33.05;;;17.88;;
38911;SDS011;28444;48.056;14.408;2022-11-15T16:15:26;31.70;;;17.23;;
38911;SDS011;28444;48.056;14.408;2022-11-15T16:18:15;34.47;;;18.45;;
38911;SDS011;28444;48.056;14.408;2022-11-15T16:21:03;29.60;;;16.35;;
38911;SDS011;28444;48.056;14.408;2022-11-15T16:23:50;37.58;;;19.33;;
38911;SDS011;28444;48.056;14.408;2022-11-15T16:26:37;33.60;;;16.25;;
38911;SDS011;28444;48.056;14.408;2022-11-15T16:29:24;37.25;;;18.25;;
38911;SDS011;28444;48.056;14.408;2022-11-15T16:32:11;37.38;;;19.15;;
38911;SDS011;28444;48.056;14.408;2022-11-15T16:34:59;36.38;;;18.83;;
38911;SDS011;28444;48.056;14.408;2022-11-15T16:37:46;42.58;;;18.77;;
38911;SDS011;28444;48.056;14.408;2022-11-15T16:40:33;40.58;;;20.33;;
38911;SDS011;28444;48.056;14.408;2022-11-15T16:43:21;41.33;;;21.02;;
38911;SDS011;28444;48.056;14.408;2022-11-15T16:46:12;44.08;;;18.45;;
38911;SDS011;28444;48.056;14.408;2022-11-15T16:49:03;37.67;;;18.48;;
38911;SDS011;28444;48.056;14.408;2022-11-15T16:51:50;39.00;;;18.90;;
38911;SDS011;28444;48.056;14.408;2022-11-15T16:54:37;39.88;;;19.27;;
38911;SDS011;28444;48.056;14.408;2022-11-15T16:57:24;37.38;;;17.83;;
38911;SDS011;28444;48.056;14.408;2022-11-15T17:00:11;41.67;;;22.38;;
38911;SDS011;28444;48.056;14.408;2022-11-15T17:03:02;138.93;;;78.20;;
38911;SDS011;28444;48.056;14.408;2022-11-15T17:05:49;57.60;;;33.20;;
38911;SDS011;28444;48.056;14.408;2022-11-15T17:08:36;70.80;;;30.65;;
38911;SDS011;28444;48.056;14.408;2022-11-15T17:11:23;57.97;;;28.73;;
38911;SDS011;28444;48.056;14.408;2022-11-15T17:14:10;55.42;;;27.40;;
38911;SDS011;28444;48.056;14.408;2022-11-15T17:16:58;39.15;;;21.00;;
38911;SDS011;28444;48.056;14.408;2022-11-15T17:19:45;119.28;;;63.90;;
38911;SDS011;28444;48.056;14.408;2022-11-15T17:22:32;191.52;;;104.45;;
38911;SDS011;28444;48.056;14.408;2022-11-15T17:25:19;72.32;;;34.65;;
38911;SDS011;28444;48.056;14.408;2022-11-15T17:28:06;270.20;;;136.55;;
38911;SDS011;28444;48.056;14.408;2022-11-15T17:30:54;324.85;;;175.52;;
38911;SDS011;28444;48.056;14.408;2022-11-15T17:33:41;115.40;;;61.38;;
38911;SDS011;28444;48.056;14.408;2022-11-15T17:36:28;60.45;;;31.02;;
38911;SDS011;28444;48.056;14.408;2022-11-15T17:39:16;49.85;;;26.17;;
38911;SDS011;28444;48.056;14.408;2022-11-15T17:42:05;70.93;;;44.83;;
38911;SDS011;28444;48.056;14.408;2022-11-15T17:44:52;64.13;;;37.15;;
38911;SDS011;28444;48.056;14.408;2022-11-15T17:47:39;49.08;;;24.90;;
38911;SDS011;28444;48.056;14.408;2022-11-15T17:50:26;34.42;;;18.73;;
38911;SDS011;28444;48.056;14.408;2022-11-15T17:53:13;74.88;;;37.47;;